createdAt,value
2022-09-02T00:00:23.192Z,0.00
2022-09-02T00:01:23.163Z,0.00
2022-09-02T00:02:24.074Z,0.00
2022-09-02T00:03:23.527Z,0.00
2022-09-02T00:04:23.130Z,0.00
2022-09-02T00:05:23.133Z,0.00
2022-09-02T00:06:23.179Z,0.00
2022-09-02T00:07:23.099Z,0.00
2022-09-02T00:08:23.085Z,0.00
2022-09-02T00:09:23.069Z,0.00
2022-09-02T00:10:23.085Z,0.00
2022-09-02T00:11:23.057Z,0.00
2022-09-02T00:12:23.041Z,0.00
2022-09-02T00:13:23.026Z,0.00
2022-09-02T00:14:23.019Z,0.00
2022-09-02T00:15:23.019Z,0.00
2022-09-02T00:16:23.030Z,0.00
2022-09-02T00:17:22.981Z,0.00
2022-09-02T00:18:22.978Z,0.00
2022-09-02T00:19:22.965Z,0.00
2022-09-02T00:20:22.968Z,0.00
2022-09-02T00:21:22.952Z,0.00
2022-09-02T00:22:22.929Z,0.00
2022-09-02T00:23:22.917Z,0.00
2022-09-02T00:24:24.030Z,0.00
2022-09-02T00:25:22.895Z,0.00
2022-09-02T00:26:22.885Z,0.00
2022-09-02T00:27:22.872Z,0.00
2022-09-02T00:28:22.866Z,0.00
2022-09-02T00:29:22.887Z,0.00
2022-09-02T00:30:22.839Z,0.00
2022-09-02T00:31:22.894Z,0.00
2022-09-02T00:32:22.814Z,0.00
2022-09-02T00:33:22.883Z,0.00
2022-09-02T00:34:22.796Z,0.00
2022-09-02T00:35:22.800Z,0.00
2022-09-02T00:36:22.771Z,0.00
2022-09-02T00:37:22.760Z,0.00
2022-09-02T00:38:22.773Z,0.00
2022-09-02T00:39:22.737Z,0.00
2022-09-02T00:40:22.818Z,0.00
2022-09-02T00:41:22.721Z,0.00
2022-09-02T00:42:22.708Z,0.00
2022-09-02T00:43:22.798Z,0.00
2022-09-02T00:44:22.687Z,0.00
2022-09-02T00:45:22.716Z,0.00
2022-09-02T00:46:22.668Z,0.00
2022-09-02T00:47:22.651Z,0.00
2022-09-02T00:48:22.642Z,0.00
2022-09-02T00:49:22.631Z,0.00
2022-09-02T00:50:22.634Z,0.00
2022-09-02T00:51:22.605Z,0.00
2022-09-02T00:52:22.595Z,0.00
2022-09-02T00:53:22.710Z,0.00
2022-09-02T00:54:22.573Z,0.00
2022-09-02T00:55:22.692Z,0.00
2022-09-02T00:56:22.551Z,0.00
2022-09-02T00:57:22.544Z,0.00
2022-09-02T00:58:22.535Z,0.00
2022-09-02T00:59:22.536Z,0.00
2022-09-02T01:00:22.519Z,0.00
2022-09-02T01:01:22.797Z,0.00
2022-09-02T01:02:22.597Z,0.00
2022-09-02T01:03:22.643Z,0.00
2022-09-02T01:04:22.465Z,0.00
2022-09-02T01:05:22.696Z,0.00
2022-09-02T01:06:22.642Z,0.00
2022-09-02T01:07:22.429Z,0.00
2022-09-02T01:08:22.438Z,0.00
2022-09-02T01:09:22.408Z,0.00
2022-09-02T01:10:22.494Z,0.00
2022-09-02T01:11:22.384Z,0.00
2022-09-02T01:12:22.373Z,0.00
2022-09-02T01:13:22.531Z,0.00
2022-09-02T01:14:22.353Z,0.00
2022-09-02T01:15:22.335Z,0.00
2022-09-02T01:16:22.374Z,0.00
2022-09-02T01:17:22.318Z,0.00
2022-09-02T01:18:22.328Z,0.00
2022-09-02T01:19:22.296Z,0.00
2022-09-02T01:20:24.498Z,0.00
2022-09-02T01:21:22.271Z,0.00
2022-09-02T01:22:22.261Z,0.00
2022-09-02T01:23:22.584Z,0.00
2022-09-02T01:24:22.244Z,0.00
2022-09-02T01:25:22.231Z,0.00
2022-09-02T01:26:22.255Z,0.00
2022-09-02T01:27:22.362Z,0.00
2022-09-02T01:28:22.194Z,0.00
2022-09-02T01:29:22.183Z,0.00
2022-09-02T01:30:22.177Z,0.00
2022-09-02T01:31:22.206Z,0.00
2022-09-02T01:32:22.164Z,0.00
2022-09-02T01:33:22.163Z,0.00
2022-09-02T01:34:22.129Z,0.00
2022-09-02T01:35:22.135Z,0.00
2022-09-02T01:36:22.132Z,0.00
2022-09-02T01:37:22.094Z,0.00
2022-09-02T01:38:22.084Z,0.00
2022-09-02T01:39:22.069Z,0.00
2022-09-02T01:40:22.573Z,0.00
2022-09-02T01:41:22.065Z,0.00
2022-09-02T01:42:22.393Z,0.00
2022-09-02T01:43:22.083Z,0.00
2022-09-02T01:44:22.337Z,0.00
2022-09-02T01:45:22.021Z,0.00
2022-09-02T01:46:22.055Z,0.00
2022-09-02T01:47:21.984Z,0.00
2022-09-02T01:48:22.123Z,0.00
2022-09-02T01:49:21.965Z,0.00
2022-09-02T01:50:21.974Z,0.00
2022-09-02T01:51:21.944Z,0.00
2022-09-02T01:52:21.928Z,0.00
2022-09-02T01:53:22.054Z,0.00
2022-09-02T01:54:21.903Z,0.00
2022-09-02T01:55:23.541Z,0.00
2022-09-02T01:56:21.888Z,0.00
2022-09-02T01:57:21.871Z,0.00
2022-09-02T01:58:21.859Z,0.00
2022-09-02T01:59:21.850Z,0.00
2022-09-02T02:00:21.842Z,0.00
2022-09-02T02:01:22.529Z,0.00
2022-09-02T02:02:21.911Z,0.00
2022-09-02T02:03:21.927Z,0.00
2022-09-02T02:04:21.796Z,0.00
2022-09-02T02:05:21.779Z,0.00
2022-09-02T02:06:21.800Z,0.00
2022-09-02T02:07:21.761Z,0.00
2022-09-02T02:08:21.751Z,0.00
2022-09-02T02:09:21.734Z,0.00
2022-09-02T02:10:21.733Z,0.00
2022-09-02T02:11:21.732Z,0.00
2022-09-02T02:12:21.707Z,0.00
2022-09-02T02:13:21.843Z,0.00
2022-09-02T02:14:21.769Z,0.00
2022-09-02T02:15:21.670Z,0.00
2022-09-02T02:16:21.869Z,0.00
2022-09-02T02:17:21.670Z,0.00
2022-09-02T02:18:21.638Z,0.00
2022-09-02T02:19:21.623Z,0.00
2022-09-02T02:20:34.378Z,0.00
2022-09-02T02:21:21.606Z,0.00
2022-09-02T02:22:21.593Z,0.00
2022-09-02T02:23:21.702Z,0.00
2022-09-02T02:24:21.610Z,0.00
2022-09-02T02:25:21.558Z,0.00
2022-09-02T02:26:21.545Z,0.00
2022-09-02T02:27:21.541Z,0.00
2022-09-02T02:28:21.525Z,0.00
2022-09-02T02:29:21.510Z,0.00
2022-09-02T02:30:24.142Z,0.00
2022-09-02T02:31:21.648Z,0.00
2022-09-02T02:32:21.478Z,0.00
2022-09-02T02:33:21.522Z,0.00
2022-09-02T02:34:21.456Z,0.00
2022-09-02T02:35:21.969Z,0.00
2022-09-02T02:36:21.445Z,0.00
2022-09-02T02:37:25.381Z,0.00
2022-09-02T02:38:21.446Z,0.00
2022-09-02T02:39:21.397Z,0.00
2022-09-02T02:40:21.460Z,0.00
2022-09-02T02:41:21.378Z,0.00
2022-09-02T02:42:21.387Z,0.00
2022-09-02T02:43:21.357Z,0.00
2022-09-02T02:44:21.358Z,0.00
2022-09-02T02:45:21.332Z,0.00
2022-09-02T02:46:21.375Z,0.00
2022-09-02T02:47:21.307Z,0.00
2022-09-02T02:48:21.301Z,0.00
2022-09-02T02:49:21.284Z,0.00
2022-09-02T02:50:21.311Z,0.00
2022-09-02T02:51:21.288Z,0.00
2022-09-02T02:52:21.252Z,0.00
2022-09-02T02:53:21.342Z,0.00
2022-09-02T02:54:21.231Z,0.00
2022-09-02T02:55:21.221Z,0.00
2022-09-02T02:56:21.207Z,0.00
2022-09-02T02:57:21.217Z,0.00
2022-09-02T02:58:21.185Z,0.00
2022-09-02T02:59:21.172Z,0.00
2022-09-02T03:00:21.162Z,0.00
2022-09-02T03:01:21.167Z,0.00
2022-09-02T03:02:21.277Z,0.00
2022-09-02T03:03:21.350Z,0.00
2022-09-02T03:04:21.114Z,0.00
2022-09-02T03:05:21.101Z,0.00
2022-09-02T03:06:21.911Z,0.00
2022-09-02T03:07:22.147Z,0.00
2022-09-02T03:08:21.104Z,0.00
2022-09-02T03:09:21.060Z,0.00
2022-09-02T03:10:21.046Z,0.00
2022-09-02T03:11:21.030Z,0.00
2022-09-02T03:12:21.060Z,0.00
2022-09-02T03:13:21.061Z,0.00
2022-09-02T03:14:21.003Z,0.00
2022-09-02T03:15:20.989Z,0.00
2022-09-02T03:16:21.085Z,0.00
2022-09-02T03:17:21.009Z,0.00
2022-09-02T03:18:20.980Z,0.00
2022-09-02T03:19:20.938Z,0.00
2022-09-02T03:20:21.044Z,0.00
2022-09-02T03:21:20.918Z,0.00
2022-09-02T03:22:20.915Z,0.00
2022-09-02T03:23:20.896Z,0.00
2022-09-02T03:24:20.891Z,0.00
2022-09-02T03:25:20.894Z,0.00
2022-09-02T03:26:20.871Z,0.00
2022-09-02T03:27:20.855Z,0.00
2022-09-02T03:28:20.845Z,0.00
2022-09-02T03:29:20.832Z,0.00
2022-09-02T03:30:21.769Z,0.00
2022-09-02T03:31:20.969Z,0.00
2022-09-02T03:32:20.811Z,0.00
2022-09-02T03:33:20.782Z,0.00
2022-09-02T03:34:20.802Z,0.00
2022-09-02T03:35:21.486Z,0.00
2022-09-02T03:36:20.747Z,0.00
2022-09-02T03:37:20.766Z,0.00
2022-09-02T03:38:20.732Z,0.00
2022-09-02T03:39:20.759Z,0.00
2022-09-02T03:40:20.765Z,0.00
2022-09-02T03:41:21.449Z,0.00
2022-09-02T03:42:20.684Z,0.00
2022-09-02T03:43:20.689Z,4.00
2022-09-02T03:44:20.666Z,4.00
2022-09-02T03:45:20.673Z,0.00
2022-09-02T03:46:20.723Z,0.00
2022-09-02T03:47:20.746Z,4.00
2022-09-02T03:48:20.637Z,0.00
2022-09-02T03:49:20.628Z,4.00
2022-09-02T03:50:20.623Z,4.00
2022-09-02T03:51:20.579Z,8.00
2022-09-02T03:52:20.572Z,8.00
2022-09-02T03:53:20.676Z,8.00
2022-09-02T03:54:20.568Z,8.00
2022-09-02T03:55:20.536Z,12.00
2022-09-02T03:56:21.590Z,12.00
2022-09-02T03:57:20.556Z,16.00
2022-09-02T03:58:21.036Z,20.00
2022-09-02T03:59:20.492Z,24.00
2022-09-02T04:00:20.483Z,24.00
2022-09-02T04:01:20.539Z,28.00
2022-09-02T04:02:20.660Z,32.00
2022-09-02T04:03:20.703Z,36.00
2022-09-02T04:04:22.834Z,44.00
2022-09-02T04:05:20.427Z,48.00
2022-09-02T04:06:20.411Z,52.00
2022-09-02T04:07:20.402Z,60.00
2022-09-02T04:08:20.405Z,68.00
2022-09-02T04:09:20.388Z,76.00
2022-09-02T04:10:20.367Z,88.00
2022-09-02T04:11:20.360Z,96.00
2022-09-02T04:12:20.344Z,108.00
2022-09-02T04:13:20.361Z,120.00
2022-09-02T04:14:20.321Z,132.00
2022-09-02T04:15:20.322Z,144.00
2022-09-02T04:16:20.467Z,156.00
2022-09-02T04:17:20.290Z,172.00
2022-09-02T04:18:20.296Z,184.00
2022-09-02T04:19:20.271Z,204.00
2022-09-02T04:20:20.261Z,220.00
2022-09-02T04:21:20.247Z,236.00
2022-09-02T04:22:22.136Z,256.00
2022-09-02T04:23:20.306Z,276.00
2022-09-02T04:24:20.218Z,300.00
2022-09-02T04:25:20.209Z,320.00
2022-09-02T04:26:21.188Z,344.00
2022-09-02T04:27:20.202Z,368.00
2022-09-02T04:28:20.236Z,392.00
2022-09-02T04:29:20.163Z,420.00
2022-09-02T04:30:20.193Z,452.00
2022-09-02T04:31:20.180Z,480.00
2022-09-02T04:32:20.123Z,504.00
2022-09-02T04:33:20.139Z,532.00
2022-09-02T04:34:20.113Z,568.00
2022-09-02T04:35:20.087Z,604.00
2022-09-02T04:36:20.096Z,640.00
2022-09-02T04:37:28.035Z,676.00
2022-09-02T04:38:20.058Z,712.00
2022-09-02T04:39:20.048Z,748.00
2022-09-02T04:40:20.101Z,788.00
2022-09-02T04:41:21.543Z,828.00
2022-09-02T04:42:20.019Z,872.00
2022-09-02T04:43:20.116Z,908.00
2022-09-02T04:44:19.993Z,968.00
2022-09-02T04:45:19.984Z,1016.00
2022-09-02T04:46:29.730Z,1068.00
2022-09-02T04:47:21.098Z,1108.00
2022-09-02T04:48:19.954Z,1144.00
2022-09-02T04:49:20.322Z,1180.00
2022-09-02T04:50:19.933Z,1216.00
2022-09-02T04:51:21.116Z,1256.00
2022-09-02T04:52:19.900Z,1288.00
2022-09-02T04:53:19.973Z,1324.00
2022-09-02T04:54:19.881Z,1356.00
2022-09-02T04:55:19.868Z,1384.00
2022-09-02T04:56:19.871Z,1412.00
2022-09-02T04:57:19.847Z,1448.00
2022-09-02T04:58:19.846Z,1496.00
2022-09-02T04:59:19.826Z,1544.00
2022-09-02T05:00:19.869Z,1592.00
2022-09-02T05:01:19.884Z,1628.00
2022-09-02T05:02:19.946Z,1660.00
2022-09-02T05:03:19.786Z,1696.00
2022-09-02T05:04:19.765Z,1732.00
2022-09-02T05:05:19.752Z,1768.00
2022-09-02T05:06:19.962Z,1808.00
2022-09-02T05:07:19.737Z,1852.00
2022-09-02T05:08:19.742Z,1892.00
2022-09-02T05:09:19.710Z,1924.00
2022-09-02T05:10:19.695Z,1940.00
2022-09-02T05:11:19.727Z,1956.00
2022-09-02T05:12:19.670Z,1972.00
2022-09-02T05:13:19.667Z,2004.00
2022-09-02T05:14:19.650Z,2052.00
2022-09-02T05:15:19.642Z,2116.00
2022-09-02T05:16:19.727Z,2192.00
2022-09-02T05:17:19.767Z,2256.00
2022-09-02T05:18:19.609Z,2332.00
2022-09-02T05:19:19.593Z,2408.00
2022-09-02T05:20:19.627Z,2496.00
2022-09-02T05:21:19.581Z,2580.00
2022-09-02T05:22:19.561Z,2660.00
2022-09-02T05:23:19.950Z,2756.00
2022-09-02T05:24:23.256Z,2844.00
2022-09-02T05:25:20.551Z,2920.00
2022-09-02T05:26:19.510Z,2984.00
2022-09-02T05:27:19.532Z,3028.00
2022-09-02T05:28:19.491Z,3084.00
2022-09-02T05:29:22.654Z,3164.00
2022-09-02T05:30:19.471Z,3228.00
2022-09-02T05:31:19.517Z,3256.00
2022-09-02T05:32:19.445Z,3264.00
2022-09-02T05:33:19.531Z,3264.00
2022-09-02T05:34:19.538Z,3276.00
2022-09-02T05:35:19.436Z,3328.00
2022-09-02T05:36:19.400Z,3416.00
2022-09-02T05:37:19.389Z,3532.00
2022-09-02T05:38:19.439Z,3620.00
2022-09-02T05:39:19.437Z,3720.00
2022-09-02T05:40:22.568Z,3812.00
2022-09-02T05:41:19.345Z,3888.00
2022-09-02T05:42:19.329Z,3972.00
2022-09-02T05:43:19.322Z,4064.00
2022-09-02T05:44:19.329Z,4180.00
2022-09-02T05:45:20.668Z,4344.00
2022-09-02T05:46:19.361Z,4552.00
2022-09-02T05:47:19.287Z,4748.00
2022-09-02T05:48:19.265Z,4940.00
2022-09-02T05:49:19.345Z,5084.00
2022-09-02T05:50:19.263Z,5192.00
2022-09-02T05:51:19.241Z,5272.00
2022-09-02T05:52:19.230Z,5304.00
2022-09-02T05:53:19.223Z,5376.00
2022-09-02T05:54:19.288Z,5268.00
2022-09-02T05:55:20.855Z,5212.00
2022-09-02T05:56:19.176Z,4924.00
2022-09-02T05:57:19.176Z,4796.00
2022-09-02T05:58:19.172Z,4720.00
2022-09-02T05:59:19.166Z,4628.00
2022-09-02T06:00:19.145Z,4532.00
2022-09-02T06:01:19.130Z,4472.00
2022-09-02T06:02:19.214Z,4492.00
2022-09-02T06:03:19.349Z,4636.00
2022-09-02T06:04:19.127Z,4860.00
2022-09-02T06:05:19.075Z,5096.00
2022-09-02T06:06:19.214Z,5284.00
2022-09-02T06:07:19.055Z,5504.00
2022-09-02T06:08:19.044Z,5708.00
2022-09-02T06:09:19.034Z,5964.00
2022-09-02T06:10:21.112Z,6268.00
2022-09-02T06:11:19.008Z,6584.00
2022-09-02T06:12:19.023Z,6920.00
2022-09-02T06:13:19.024Z,7200.00
2022-09-02T06:14:18.974Z,7480.00
2022-09-02T06:15:18.991Z,7740.00
2022-09-02T06:16:19.019Z,8004.00
2022-09-02T06:17:18.942Z,8292.00
2022-09-02T06:18:18.930Z,8528.00
2022-09-02T06:19:20.466Z,8664.00
2022-09-02T06:20:21.291Z,8744.00
2022-09-02T06:21:18.901Z,8792.00
2022-09-02T06:22:18.932Z,8868.00
2022-09-02T06:23:19.067Z,8972.00
2022-09-02T06:24:18.866Z,9208.00
2022-09-02T06:25:18.853Z,9580.00
2022-09-02T06:26:18.882Z,11248.00
2022-09-02T06:27:18.902Z,12500.00
2022-09-02T06:28:18.816Z,10700.00
2022-09-02T06:29:18.811Z,9688.00
2022-09-02T06:30:18.875Z,9784.00
2022-09-02T06:31:18.861Z,10108.00
2022-09-02T06:32:18.779Z,10536.00
2022-09-02T06:33:18.768Z,11008.00
2022-09-02T06:34:18.753Z,11492.00
2022-09-02T06:35:18.763Z,12096.00
2022-09-02T06:36:18.724Z,16160.00
2022-09-02T06:37:18.721Z,31424.00
2022-09-02T06:38:18.710Z,39296.00
2022-09-02T06:39:23.643Z,39008.00
2022-09-02T06:40:18.736Z,32800.00
2022-09-02T06:41:18.677Z,16800.00
2022-09-02T06:42:18.661Z,16096.00
2022-09-02T06:43:18.693Z,14660.00
2022-09-02T06:44:20.323Z,17056.00
2022-09-02T06:45:18.629Z,15364.00
2022-09-02T06:46:19.603Z,15392.00
2022-09-02T06:47:18.618Z,15428.00
2022-09-02T06:48:18.602Z,22048.00
2022-09-02T06:49:18.592Z,15236.00
2022-09-02T06:50:18.599Z,26688.00
2022-09-02T06:51:18.567Z,42880.00
2022-09-02T06:52:18.551Z,42752.00
2022-09-02T06:53:18.587Z,42624.00
2022-09-02T06:54:20.499Z,41440.00
2022-09-02T06:55:18.525Z,32320.00
2022-09-02T06:56:18.509Z,31424.00
2022-09-02T06:57:18.582Z,39520.00
2022-09-02T06:58:18.477Z,40256.00
2022-09-02T06:59:18.492Z,40192.00
2022-09-02T07:00:18.484Z,40704.00
2022-09-02T07:01:18.583Z,40896.00
2022-09-02T07:02:18.449Z,39456.00
2022-09-02T07:03:18.554Z,41152.00
2022-09-02T07:04:18.419Z,41824.00
2022-09-02T07:05:18.875Z,43040.00
2022-09-02T07:06:18.400Z,44160.00
2022-09-02T07:07:18.386Z,45376.00
2022-09-02T07:08:18.383Z,46080.00
2022-09-02T07:09:18.394Z,46496.00
2022-09-02T07:10:18.357Z,46912.00
2022-09-02T07:11:18.341Z,48096.00
2022-09-02T07:12:18.332Z,49024.00
2022-09-02T07:13:18.389Z,50112.00
2022-09-02T07:14:18.335Z,51104.00
2022-09-02T07:15:18.338Z,50816.00
2022-09-02T07:16:18.477Z,39488.00
2022-09-02T07:17:19.286Z,45984.00
2022-09-02T07:18:18.364Z,41024.00
2022-09-02T07:19:20.647Z,29024.00
2022-09-02T07:20:19.040Z,33280.00
2022-09-02T07:21:18.237Z,39552.00
2022-09-02T07:22:18.891Z,47904.00
2022-09-02T07:23:18.228Z,45344.00
2022-09-02T07:24:18.221Z,55200.00
2022-09-02T07:25:18.189Z,56352.00
2022-09-02T07:26:18.214Z,56352.00
2022-09-02T07:27:18.172Z,56896.00
2022-09-02T07:28:18.163Z,57600.00
2022-09-02T07:29:18.182Z,58080.00
2022-09-02T07:30:18.135Z,58112.00
2022-09-02T07:31:18.300Z,58432.00
2022-09-02T07:32:18.121Z,59040.00
2022-09-02T07:33:18.159Z,59712.00
2022-09-02T07:34:18.093Z,60288.00
2022-09-02T07:35:19.220Z,60896.00
2022-09-02T07:36:18.102Z,61216.00
2022-09-02T07:37:18.332Z,62176.00
2022-09-02T07:38:18.054Z,63616.00
2022-09-02T07:39:18.045Z,56512.00
2022-09-02T07:40:18.124Z,57088.00
2022-09-02T07:41:18.022Z,57664.00
2022-09-02T07:42:18.049Z,65408.00
2022-09-02T07:43:18.061Z,58624.00
2022-09-02T07:44:18.034Z,67616.00
2022-09-02T07:45:17.983Z,68384.00
2022-09-02T07:46:18.004Z,68672.00
2022-09-02T07:47:17.974Z,67840.00
2022-09-02T07:48:17.974Z,70304.00
2022-09-02T07:49:22.051Z,72448.00
2022-09-02T07:50:21.016Z,70272.00
2022-09-02T07:51:18.095Z,72800.00
2022-09-02T07:52:18.022Z,68448.00
2022-09-02T07:53:18.034Z,19296.00
2022-09-02T07:54:18.636Z,61216.00
2022-09-02T07:55:18.610Z,20000.00
2022-09-02T07:56:17.893Z,68992.00
2022-09-02T07:57:17.872Z,18272.00
2022-09-02T07:58:17.845Z,19552.00
2022-09-02T07:59:17.851Z,34592.00
2022-09-02T08:00:17.848Z,55328.00
2022-09-02T08:01:22.654Z,46816.00
2022-09-02T08:02:18.924Z,27040.00
2022-09-02T08:03:17.793Z,64832.00
2022-09-02T08:04:17.885Z,42528.00
2022-09-02T08:05:17.779Z,28736.00
2022-09-02T08:06:17.764Z,50304.00
2022-09-02T08:07:18.752Z,57280.00
2022-09-02T08:08:17.735Z,61120.00
2022-09-02T08:09:17.733Z,45440.00
2022-09-02T08:10:17.733Z,67392.00
2022-09-02T08:11:18.564Z,49280.00
2022-09-02T08:12:20.191Z,75424.00
2022-09-02T08:13:17.789Z,82208.00
2022-09-02T08:14:17.677Z,91936.00
2022-09-02T08:15:17.688Z,90528.00
2022-09-02T08:16:17.703Z,88928.00
2022-09-02T08:17:17.646Z,86816.00
2022-09-02T08:18:21.608Z,85184.00
2022-09-02T08:19:18.627Z,85024.00
2022-09-02T08:20:19.944Z,84512.00
2022-09-02T08:21:17.605Z,84864.00
2022-09-02T08:22:17.609Z,85056.00
2022-09-02T08:23:33.152Z,84736.00
2022-09-02T08:24:18.610Z,84160.00
2022-09-02T08:25:17.588Z,83968.00
2022-09-02T08:26:17.581Z,84192.00
2022-09-02T08:27:17.542Z,84320.00
2022-09-02T08:28:17.658Z,84256.00
2022-09-02T08:29:17.520Z,84096.00
2022-09-02T08:30:17.550Z,84416.00
2022-09-02T08:31:17.573Z,85216.00
2022-09-02T08:32:17.577Z,86304.00
2022-09-02T08:33:17.518Z,86592.00
2022-09-02T08:34:17.472Z,86848.00
2022-09-02T08:35:17.521Z,87136.00
2022-09-02T08:36:17.450Z,85312.00
2022-09-02T08:37:17.436Z,88288.00
2022-09-02T08:38:17.473Z,45184.00
2022-09-02T08:39:17.468Z,62304.00
2022-09-02T08:40:18.178Z,88032.00
2022-09-02T08:41:18.118Z,84768.00
2022-09-02T08:42:17.424Z,88224.00
2022-09-02T08:43:17.447Z,87904.00
2022-09-02T08:44:17.375Z,84064.00
2022-09-02T08:45:17.425Z,83872.00
2022-09-02T08:46:17.397Z,87872.00
2022-09-02T08:47:17.364Z,85664.00
2022-09-02T08:48:17.331Z,91072.00
2022-09-02T08:49:17.320Z,90976.00
2022-09-02T08:50:17.321Z,91456.00
2022-09-02T08:51:18.639Z,92256.00
2022-09-02T08:52:17.933Z,92064.00
2022-09-02T08:53:17.283Z,91072.00
2022-09-02T08:54:17.275Z,91488.00
2022-09-02T08:55:17.279Z,92096.00
2022-09-02T08:56:17.252Z,91200.00
2022-09-02T08:57:17.244Z,90944.00
2022-09-02T08:58:17.471Z,91328.00
2022-09-02T08:59:17.224Z,91584.00
2022-09-02T09:00:17.231Z,91520.00
2022-09-02T09:01:17.286Z,91072.00
2022-09-02T09:02:17.784Z,81120.00
2022-09-02T09:03:17.188Z,93216.00
2022-09-02T09:04:17.200Z,90080.00
2022-09-02T09:05:17.307Z,93184.00
2022-09-02T09:06:17.186Z,93920.00
2022-09-02T09:07:17.145Z,95232.00
2022-09-02T09:08:21.455Z,95072.00
2022-09-02T09:09:17.130Z,94816.00
2022-09-02T09:10:17.117Z,93216.00
2022-09-02T09:11:17.128Z,93984.00
2022-09-02T09:12:17.100Z,93600.00
2022-09-02T09:13:17.084Z,93312.00
2022-09-02T09:14:17.078Z,93920.00
2022-09-02T09:15:17.465Z,92896.00
2022-09-02T09:16:17.179Z,92768.00
2022-09-02T09:17:17.046Z,92928.00
2022-09-02T09:18:17.038Z,92736.00
2022-09-02T09:19:17.379Z,93376.00
2022-09-02T09:20:17.023Z,93792.00
2022-09-02T09:21:17.070Z,93408.00
2022-09-02T09:22:16.999Z,93344.00
2022-09-02T09:23:21.398Z,91296.00
2022-09-02T09:24:18.017Z,92064.00
2022-09-02T09:25:16.976Z,92864.00
2022-09-02T09:26:16.961Z,93600.00
2022-09-02T09:27:16.955Z,92416.00
2022-09-02T09:28:16.944Z,92864.00
2022-09-02T09:29:16.932Z,92832.00
2022-09-02T09:30:17.051Z,94080.00
2022-09-02T09:31:16.967Z,94176.00
2022-09-02T09:32:16.906Z,95264.00
2022-09-02T09:33:16.893Z,95104.00
2022-09-02T09:34:16.894Z,98976.00
2022-09-02T09:35:16.907Z,99104.00
2022-09-02T09:36:16.900Z,99168.00
2022-09-02T09:37:16.858Z,99232.00
2022-09-02T09:38:16.845Z,99168.00
2022-09-02T09:39:16.841Z,98624.00
2022-09-02T09:40:16.999Z,98816.00
2022-09-02T09:41:16.891Z,99840.00
2022-09-02T09:42:17.000Z,98848.00
2022-09-02T09:43:16.961Z,98784.00
2022-09-02T09:44:16.824Z,98656.00
2022-09-02T09:45:16.784Z,98048.00
2022-09-02T09:46:16.866Z,97248.00
2022-09-02T09:47:18.149Z,95968.00
2022-09-02T09:48:16.787Z,95008.00
2022-09-02T09:49:16.765Z,93568.00
2022-09-02T09:50:16.798Z,94848.00
2022-09-02T09:51:16.963Z,96384.00
2022-09-02T09:52:16.726Z,96992.00
2022-09-02T09:53:16.716Z,98528.00
2022-09-02T09:54:16.704Z,98528.00
2022-09-02T09:55:22.770Z,85632.00
2022-09-02T09:56:17.689Z,10032.00
2022-09-02T09:57:16.674Z,10468.00
2022-09-02T09:58:16.724Z,11668.00
2022-09-02T09:59:20.327Z,14948.00
2022-09-02T10:00:16.689Z,26080.00
2022-09-02T10:01:16.712Z,67904.00
2022-09-02T10:02:16.705Z,106848.00
2022-09-02T10:03:19.606Z,109120.00
2022-09-02T10:04:39.342Z,110144.00
2022-09-02T10:05:17.588Z,110112.00
2022-09-02T10:06:16.601Z,105216.00
2022-09-02T10:07:16.569Z,104256.00
2022-09-02T10:08:16.584Z,103776.00
2022-09-02T10:09:16.571Z,56672.00
2022-09-02T10:10:16.600Z,102752.00
2022-09-02T10:11:16.546Z,104192.00
2022-09-02T10:12:16.549Z,14764.00
2022-09-02T10:13:16.515Z,14068.00
2022-09-02T10:14:16.508Z,11924.00
2022-09-02T10:15:16.511Z,46432.00
2022-09-02T10:16:16.627Z,74496.00
2022-09-02T10:17:16.468Z,12672.00
2022-09-02T10:18:16.467Z,19168.00
2022-09-02T10:19:24.112Z,34368.00
2022-09-02T10:20:16.535Z,21280.00
2022-09-02T10:21:16.637Z,106624.00
2022-09-02T10:22:16.436Z,106912.00
2022-09-02T10:23:16.411Z,96288.00
2022-09-02T10:24:16.401Z,12044.00
2022-09-02T10:25:16.459Z,12396.00
2022-09-02T10:26:16.431Z,13980.00
2022-09-02T10:27:16.608Z,14824.00
2022-09-02T10:28:16.363Z,15676.00
2022-09-02T10:29:16.347Z,16384.00
2022-09-02T10:30:16.343Z,16544.00
2022-09-02T10:31:16.834Z,18112.00
2022-09-02T10:32:16.320Z,23520.00
2022-09-02T10:33:16.309Z,112832.00
2022-09-02T10:34:16.298Z,59872.00
2022-09-02T10:35:16.305Z,102336.00
2022-09-02T10:36:20.835Z,93280.00
2022-09-02T10:38:26.699Z,16736.00
2022-09-02T10:39:26.667Z,24576.00
2022-09-02T10:40:29.280Z,89408.00
2022-09-02T10:41:26.688Z,30464.00
2022-09-02T10:42:26.639Z,59616.00
2022-09-02T10:43:26.632Z,21024.00
2022-09-02T10:44:26.619Z,20992.00
2022-09-02T10:45:26.679Z,20640.00
2022-09-02T10:46:26.639Z,19488.00
2022-09-02T10:47:29.375Z,18400.00
2022-09-02T10:48:26.598Z,18304.00
2022-09-02T10:49:26.586Z,18400.00
2022-09-02T10:50:26.603Z,18784.00
2022-09-02T10:51:26.556Z,20704.00
2022-09-02T10:52:26.588Z,21952.00
2022-09-02T10:53:26.537Z,35488.00
2022-09-02T10:54:26.547Z,67264.00
2022-09-02T10:55:26.502Z,45024.00
2022-09-02T10:56:26.587Z,52320.00
2022-09-02T10:57:26.482Z,15568.00
2022-09-02T10:58:26.492Z,15532.00
2022-09-02T10:59:26.463Z,15112.00
2022-09-02T11:00:26.479Z,13116.00
2022-09-02T11:01:26.476Z,12064.00
2022-09-02T11:02:26.432Z,11420.00
2022-09-02T11:03:26.905Z,11448.00
2022-09-02T11:04:26.405Z,11996.00
2022-09-02T11:05:26.397Z,12788.00
2022-09-02T11:06:35.398Z,14088.00
2022-09-02T11:07:27.371Z,14472.00
2022-09-02T11:08:31.373Z,14560.00
2022-09-02T11:09:27.368Z,15436.00
2022-09-02T11:10:26.338Z,16832.00
2022-09-02T11:11:26.324Z,18880.00
2022-09-02T11:12:26.315Z,22016.00
2022-09-02T11:13:26.330Z,38944.00
2022-09-02T11:14:26.306Z,110976.00
2022-09-02T11:15:26.283Z,108896.00
2022-09-02T11:16:26.460Z,107584.00
2022-09-02T11:17:26.284Z,105248.00
2022-09-02T11:18:26.663Z,104800.00
2022-09-02T11:19:26.261Z,102112.00
2022-09-02T11:20:26.241Z,106752.00
2022-09-02T11:21:26.225Z,73344.00
2022-09-02T11:22:27.636Z,111904.00
2022-09-02T11:23:27.442Z,31296.00
2022-09-02T11:24:26.192Z,27904.00
2022-09-02T11:25:26.193Z,32128.00
2022-09-02T11:26:26.225Z,26496.00
2022-09-02T11:27:41.503Z,23136.00
2022-09-02T11:28:27.162Z,24768.00
2022-09-02T11:29:26.139Z,27008.00
2022-09-02T11:30:26.155Z,68224.00
2022-09-02T11:31:26.115Z,75360.00
2022-09-02T11:32:26.189Z,99904.00
2022-09-02T11:33:26.289Z,98368.00
2022-09-02T11:34:26.087Z,98304.00
2022-09-02T11:35:26.080Z,98528.00
2022-09-02T11:36:26.071Z,99360.00
2022-09-02T11:37:26.113Z,100320.00
2022-09-02T11:38:26.045Z,52928.00
2022-09-02T11:39:36.415Z,20000.00
2022-09-02T11:40:34.985Z,18816.00
2022-09-02T11:41:36.700Z,20736.00
2022-09-02T11:42:27.014Z,22400.00
2022-09-02T11:43:25.990Z,24128.00
2022-09-02T11:44:28.197Z,23392.00
2022-09-02T11:45:26.101Z,23424.00
2022-09-02T11:46:26.090Z,25280.00
2022-09-02T11:47:25.952Z,27776.00
2022-09-02T11:48:25.943Z,28928.00
2022-09-02T11:49:26.759Z,25824.00
2022-09-02T11:50:25.929Z,24576.00
2022-09-02T11:51:25.947Z,24640.00
2022-09-02T11:52:25.903Z,23968.00
2022-09-02T11:53:27.592Z,25088.00
2022-09-02T11:54:25.879Z,30592.00
2022-09-02T11:55:25.865Z,19712.00
2022-09-02T11:56:25.859Z,18080.00
2022-09-02T11:57:25.866Z,18624.00
2022-09-02T11:58:25.839Z,19456.00
2022-09-02T11:59:25.823Z,22272.00
2022-09-02T12:00:25.841Z,39040.00
2022-09-02T12:01:26.093Z,24096.00
2022-09-02T12:02:25.798Z,28096.00
2022-09-02T12:03:43.028Z,25984.00
2022-09-02T12:04:59.135Z,26368.00
2022-09-02T12:05:26.885Z,26368.00
2022-09-02T12:06:25.946Z,25792.00
2022-09-02T12:07:26.921Z,26016.00
2022-09-02T12:08:26.914Z,54560.00
2022-09-02T12:09:25.718Z,46144.00
2022-09-02T12:10:25.728Z,22624.00
2022-09-02T12:11:25.699Z,26368.00
2022-09-02T12:12:25.689Z,106144.00
2022-09-02T12:13:25.681Z,101024.00
2022-09-02T12:14:25.673Z,98528.00
2022-09-02T12:15:25.667Z,95712.00
2022-09-02T12:16:25.716Z,94336.00
2022-09-02T12:17:25.635Z,92928.00
2022-09-02T12:18:25.774Z,92608.00